Time;durP1;ratioP1;P1;durP2;ratioP2;P2;SDS_P1;SDS_P2;PMS_P1;PMS_P2;Temp;Humidity;BMP_temperature;BMP_pressure;BME280_temperature;BME280_humidity;BME280_pressure;Samples;Min_cycle;Max_cycle;Signal;HPM_P1;HPM_P2
2021/12/17 00:03:06;;;;;;;55.85;25.60;;;;;;;4.61;95.07;102238.50;5035109;28;20409;-88
2021/12/17 00:04:54;;;;;;;58.55;27.38;;;;;;;4.61;95.23;102238.50;5053850;28;20032;-89
2021/12/17 00:07:20;;;;;;;;;;;;;;;4.66;94.91;102250.59;5053695;28;20040;-88
2021/12/17 00:09:56;;;;;;;61.08;27.38;;;;;;;4.59;94.82;102239.38;5033954;28;19980;-88
2021/12/17 00:12:25;;;;;;;51.30;25.08;;;;;;;4.58;94.98;102258.47;5035137;28;20434;-88
2021/12/17 00:14:51;;;;;;;52.15;25.23;;;;;;;4.56;94.77;102255.91;5043177;28;20026;-88
2021/12/17 00:17:24;;;;;;;49.85;26.27;;;;;;;4.50;94.98;102242.97;5048357;28;20041;-88
2021/12/17 00:50:18;;;;;;;56.25;24.23;;;;;;;3.95;96.44;102240.00;5045272;28;20041;-88
2021/12/17 00:52:39;;;;;;;48.35;22.10;;;;;;;3.94;96.08;102239.16;5052457;28;20078;-88
2021/12/17 00:55:06;;;;;;;;;;;;;;;3.97;95.90;102240.81;5048475;28;20037;-88
2021/12/17 00:57:39;;;;;;;49.05;22.15;;;;;;;3.95;95.46;102242.59;5051552;28;19909;-87
2021/12/17 01:00:10;;;;;;;54.05;24.27;;;;;;;3.94;95.82;102239.16;5052588;28;20444;-88
2021/12/17 01:02:37;;;;;;;49.08;21.65;;;;;;;3.87;95.74;102233.13;5048164;28;20040;-87
2021/12/17 01:05:19;;;;;;;49.08;23.88;;;;;;;3.87;95.48;102232.28;5044676;28;20109;-88
2021/12/17 01:07:53;;;;;;;48.33;22.10;;;;;;;3.84;95.35;102230.56;5039655;28;20033;-90
2021/12/17 01:10:41;;;;;;;46.42;21.35;;;;;;;3.81;95.43;102234.91;5024928;28;20482;-88
2021/12/17 01:13:08;;;;;;;49.17;21.83;;;;;;;3.77;95.52;102241.00;5033363;28;20116;-88
2021/12/17 01:15:35;;;;;;;47.63;21.90;;;;;;;3.72;95.95;102238.44;5051381;28;20021;-88
2021/12/17 01:18:07;;;;;;;54.80;22.63;;;;;;;3.71;95.81;102239.31;5051786;28;20053;-88
2021/12/17 01:20:53;;;;;;;49.17;22.73;;;;;;;3.66;95.88;102246.25;5043318;28;20079;-88
2021/12/17 01:36:44;;;;;;;58.67;22.35;;;;;;;3.46;96.90;102251.56;5057896;28;20047;-87
2021/12/17 01:42:06;;;;;;;49.60;20.80;;;;;;;3.39;97.06;102257.66;5048173;28;20117;-88
2021/12/17 01:44:38;;;;;;;50.75;22.05;;;;;;;3.34;97.36;102262.03;5058071;28;20093;-88
2021/12/17 01:47:06;;;;;;;55.53;23.15;;;;;;;3.27;97.35;102262.91;5057273;28;20404;-88
2021/12/17 02:00:31;;;;;;;58.08;21.95;;;;;;;3.14;97.71;102256.91;5053426;28;20047;-88
2021/12/17 02:03:05;;;;;;;51.47;21.92;;;;;;;3.04;97.52;102263.00;5051060;28;20124;-88
2021/12/17 02:05:36;;;;;;;45.00;20.42;;;;;;;2.92;97.12;102274.28;5044813;28;20044;-87
2021/12/17 02:08:08;;;;;;;51.67;20.98;;;;;;;2.82;96.79;102282.97;5051193;28;20154;-88
2021/12/17 02:32:46;;;;;;;;;;;;;;;;;;;;;
2021/12/17 02:35:33;;;;;;;57.13;22.48;;;;;;;2.75;99.33;102276.06;5000086;28;20038;-88
2021/12/17 02:38:01;;;;;;;69.60;22.17;;;;;;;2.80;99.06;102282.09;4981434;28;20150;-88
2021/12/17 02:45:54;;;;;;;52.55;21.45;;;;;;;2.88;98.83;102288.97;5008877;28;20049;-87
2021/12/17 02:48:24;;;;;;;58.90;22.95;;;;;;;2.92;98.76;102285.50;5006878;28;20030;-89
2021/12/17 02:50:55;;;;;;;48.83;20.83;;;;;;;2.91;98.91;102280.31;4999598;28;20212;-87
2021/12/17 02:53:44;;;;;;;58.17;21.88;;;;;;;2.90;98.35;102268.25;5000325;28;20422;-88
2021/12/17 02:56:30;;;;;;;53.25;20.52;;;;;;;2.94;98.31;102245.78;4988677;28;20072;-88
2021/12/17 02:58:56;;;;;;;54.67;21.23;;;;;;;2.90;98.20;102250.97;4992550;28;20037;-88
2021/12/17 03:01:30;;;;;;;45.58;19.38;;;;;;;2.83;98.06;102261.34;5002193;28;20542;-87
2021/12/17 03:03:58;;;;;;;45.65;20.02;;;;;;;2.77;98.04;102258.78;4986532;28;20388;-88
2021/12/17 03:06:41;;;;;;;49.80;19.42;;;;;;;2.72;98.02;102255.34;5004825;28;20117;-87
2021/12/17 03:09:06;;;;;;;45.50;19.17;;;;;;;2.69;98.31;102251.03;4976510;28;20045;-87
2021/12/17 03:11:34;;;;;;;53.75;22.23;;;;;;;2.64;98.10;102243.28;5015403;28;20034;-88
2021/12/17 03:14:00;;;;;;;54.28;22.10;;;;;;;2.67;98.77;102237.25;5044292;28;20028;-87
2021/12/17 03:19:04;;;;;;;57.47;21.88;;;;;;;2.65;98.46;102232.03;5042425;28;20037;-88
2021/12/17 03:24:22;;;;;;;51.38;20.10;;;;;;;2.55;98.89;102248.47;5050934;28;20128;-89
2021/12/17 03:26:48;;;;;;;55.28;21.40;;;;;;;2.46;98.86;102258.84;5042095;28;20517;-88
2021/12/17 03:29:15;;;;;;;51.80;20.92;;;;;;;2.35;98.58;102255.41;5044666;28;20204;-89
2021/12/17 03:31:48;;;;;;;56.83;21.17;;;;;;;2.27;98.50;102259.75;5039600;28;20109;-87
2021/12/17 03:34:30;;;;;;;46.78;19.80;;;;;;;2.23;99.28;102268.38;4993745;28;20086;-87
2021/12/17 03:36:58;;;;;;;;;;;;;;;2.23;99.65;102264.06;5045524;28;20037;-88
2021/12/17 03:39:30;;;;;;;56.93;20.47;;;;;;;2.22;99.68;102259.72;5054154;28;20302;-87
2021/12/17 03:41:56;;;;;;;59.08;21.17;;;;;;;2.22;99.94;102259.72;5053278;28;20053;-88
2021/12/17 03:44:22;;;;;;;62.67;22.15;;;;;;;2.26;100.00;102261.44;5049133;28;20048;-88
2021/12/17 03:46:51;;;;;;;61.47;22.67;;;;;;;2.32;100.00;102261.44;5052654;28;20041;-88
2021/12/17 03:49:22;;;;;;;52.92;21.00;;;;;;;2.34;100.00;102261.47;5041742;28;20419;-88
2021/12/17 03:51:52;;;;;;;60.55;19.90;;;;;;;2.37;99.98;102264.03;5040205;28;20106;-89
2021/12/17 03:54:18;;;;;;;61.83;21.27;;;;;;;2.43;99.54;102261.44;5055413;28;20559;-87
2021/12/17 03:56:52;;;;;;;58.03;21.05;;;;;;;2.52;99.50;102257.97;5044173;28;20064;-88
2021/12/17 03:59:17;;;;;;;52.70;20.48;;;;;;;2.55;99.53;102258.81;5038386;28;20105;-84
2021/12/17 04:01:45;;;;;;;52.92;21.25;;;;;;;2.63;99.08;102258.81;5030292;28;20509;-87
2021/12/17 04:04:14;;;;;;;47.33;18.33;;;;;;;2.71;99.17;102256.19;5041002;28;20020;-89
2021/12/17 04:06:40;;;;;;;55.15;20.98;;;;;;;2.78;98.66;102257.91;5034712;28;20091;-87
2021/12/17 04:09:09;;;;;;;47.35;20.63;;;;;;;2.87;98.29;102252.72;5059753;28;20024;-88
2021/12/17 04:11:34;;;;;;;53.08;20.27;;;;;;;2.95;97.55;102257.88;5054491;28;20025;-88
2021/12/17 04:14:19;;;;;;;41.92;18.25;;;;;;;3.00;97.28;102244.00;5054622;28;20569;-88
2021/12/17 04:17:02;;;;;;;46.13;18.80;;;;;;;3.07;97.61;102255.22;5052727;28;20031;-88
2021/12/17 04:19:33;;;;;;;47.75;20.48;;;;;;;3.15;96.90;102240.47;5049243;28;20033;-88
2021/12/17 04:22:07;;;;;;;42.20;19.08;;;;;;;3.21;96.22;102240.47;5044630;28;20031;-88
2021/12/17 04:24:33;;;;;;;47.60;21.20;;;;;;;3.26;95.61;102248.22;5042849;28;20029;-79
2021/12/17 04:27:11;;;;;;;;;;;;;;;;;;;;;
2021/12/17 04:29:41;;;;;;;46.85;20.08;;;;;;;3.44;96.04;102244.66;5043663;28;20105;-88
2021/12/17 04:32:07;;;;;;;48.97;19.65;;;;;;;3.45;95.98;102251.56;5057062;28;20116;-88
2021/12/17 04:34:36;;;;;;;50.00;20.23;;;;;;;3.51;95.56;102255.00;5053256;28;20032;-88
2021/12/17 04:37:04;;;;;;;44.60;20.70;;;;;;;3.58;95.63;102258.41;5053647;28;20029;-84
2021/12/17 04:39:32;;;;;;;43.65;19.35;;;;;;;3.61;95.51;102261.84;5044777;28;20024;-88
2021/12/17 04:42:03;;;;;;;44.10;18.85;;;;;;;3.60;95.21;102256.69;5037182;28;20032;-88
2021/12/17 04:44:33;;;;;;;45.72;19.50;;;;;;;3.59;95.02;102248.00;5052839;28;20128;-88
2021/12/17 04:57:15;;;;;;;44.92;19.77;;;;;;;3.67;94.74;102249.69;5053844;28;20049;-89
2021/12/17 04:57:53;;;;;;;;;;;;;;;;;;;;;
2021/12/17 05:00:34;;;;;;;44.25;19.25;;;;;;;3.80;94.59;102244.44;5068422;28;20116;-89
2021/12/17 05:03:02;;;;;;;42.30;19.33;;;;;;;3.83;94.61;102251.34;5034503;28;20042;-88
2021/12/17 05:05:33;;;;;;;41.30;18.27;;;;;;;3.83;94.25;102259.13;5032115;28;20109;-87
2021/12/17 05:08:06;;;;;;;45.50;20.05;;;;;;;3.79;94.67;102257.44;5032417;28;20070;-88
2021/12/17 05:25:10;;;;;;;45.20;20.10;;;;;;;3.27;96.63;102255.16;5011575;28;20578;-88
2021/12/17 05:27:38;;;;;;;45.22;19.33;;;;;;;3.18;96.80;102253.44;5011103;28;20102;-89
2021/12/17 05:30:15;;;;;;;;;;;;;;;;;;;;;
2021/12/17 05:32:44;;;;;;;43.80;20.30;;;;;;;3.03;97.16;102238.81;5016971;28;20154;-90
2021/12/17 05:35:10;;;;;;;46.22;19.45;;;;;;;3.00;97.52;102249.19;5002806;28;20184;-88
2021/12/17 05:37:36;;;;;;;48.10;20.38;;;;;;;2.93;97.73;102242.34;5013669;28;20030;-89
2021/12/17 05:40:12;;;;;;;50.53;19.80;;;;;;;2.87;97.68;102250.97;4992884;28;20397;-89
2021/12/17 05:42:50;;;;;;;48.63;19.60;;;;;;;2.79;97.97;102249.28;5000153;28;20061;-90
2021/12/17 05:45:35;;;;;;;49.55;21.27;;;;;;;2.77;98.46;102253.59;5016144;28;20033;-91
2021/12/17 05:48:09;;;;;;;45.28;19.33;;;;;;;2.75;98.82;102256.19;5033587;28;20103;-92
2021/12/17 05:51:01;;;;;;;49.67;19.42;;;;;;;2.73;98.48;102257.06;5024926;28;20044;-90
2021/12/17 05:53:38;;;;;;;48.92;19.52;;;;;;;2.69;98.40;102257.94;5024286;28;20134;-91
2021/12/17 05:56:06;;;;;;;51.65;21.42;;;;;;;2.62;98.51;102257.09;5000533;28;20060;-89
2021/12/17 05:58:32;;;;;;;54.17;19.97;;;;;;;2.55;98.76;102265.72;5036825;28;20033;-92
2021/12/17 06:01:08;;;;;;;56.90;22.33;;;;;;;2.55;99.23;102269.19;5045176;28;20033;-90
2021/12/17 06:03:46;;;;;;;56.50;20.33;;;;;;;2.51;99.12;102264.00;5044880;28;20106;-90
2021/12/17 06:06:11;;;;;;;52.50;20.13;;;;;;;2.49;99.32;102265.75;5038975;28;20025;-91
2021/12/17 06:08:50;;;;;;;;;;;;;;;;;;;;;
2021/12/17 06:11:36;;;;;;;48.72;19.73;;;;;;;2.45;98.67;102266.59;5045598;28;20097;-90
2021/12/17 06:14:16;;;;;;;48.53;20.05;;;;;;;2.39;99.17;102263.16;5062608;28;20052;-91
2021/12/17 06:17:16;;;;;;;50.53;19.80;;;;;;;2.36;99.62;102250.22;5054683;28;20111;-90
2021/12/17 06:19:42;;;;;;;49.20;20.38;;;;;;;2.36;99.63;102257.13;5016533;28;20107;-87
2021/12/17 06:22:15;;;;;;;54.03;19.75;;;;;;;2.39;99.71;102254.53;5054591;28;20041;-92
2021/12/17 06:24:47;;;;;;;51.25;20.98;;;;;;;2.43;99.53;102264.03;5050546;28;20135;-91
2021/12/17 06:27:22;;;;;;;60.78;21.67;;;;;;;2.46;99.77;102265.75;5041845;28;20035;-89
2021/12/17 06:29:47;;;;;;;50.05;20.70;;;;;;;2.47;99.38;102259.72;5060822;28;20076;-91
2021/12/17 06:35:10;;;;;;;52.95;21.25;;;;;;;2.60;100.00;102266.59;5058458;28;20151;-89
2021/12/17 06:37:37;;;;;;;46.42;19.98;;;;;;;2.56;99.22;102267.44;5048575;28;20047;-83
2021/12/17 06:40:17;;;;;;;46.13;19.92;;;;;;;2.45;98.79;102266.59;5043112;28;20059;-89
2021/12/17 06:42:51;;;;;;;52.35;20.40;;;;;;;2.45;99.08;102264.00;5048704;28;20037;-90
2021/12/17 06:45:37;;;;;;;53.05;21.42;;;;;;;2.47;99.19;102264.88;5057305;28;20028;-90
2021/12/17 06:48:07;;;;;;;58.22;22.42;;;;;;;2.46;99.07;102260.56;5052538;28;20079;-89
2021/12/17 07:10:17;;;;;;;44.55;19.42;;;;;;;2.36;99.02;102277.84;5052542;28;20199;-88
2021/12/17 07:19:09;;;;;;;51.85;20.75;;;;;;;2.33;98.51;102277.84;5023627;28;20048;-90
2021/12/17 07:21:31;;;;;;;48.10;20.05;;;;;;;2.25;98.15;102272.66;5040940;28;20029;-87
2021/12/17 07:40:10;;;;;;;45.20;18.85;;;;;;;2.10;98.71;102275.25;5044947;28;20385;-86
2021/12/17 07:43:02;;;;;;;46.63;19.90;;;;;;;2.04;98.58;102276.13;5043576;28;20036;-92
2021/12/17 07:45:29;;;;;;;48.78;19.88;;;;;;;2.06;98.80;102264.03;5056259;28;20509;-90
2021/12/17 07:47:57;;;;;;;45.05;20.60;;;;;;;2.09;99.06;102261.47;5046895;28;20177;-89
2021/12/17 07:50:25;;;;;;;52.05;20.83;;;;;;;2.16;99.52;102265.78;5051719;28;20025;-90
2021/12/17 07:52:50;;;;;;;53.73;21.10;;;;;;;2.25;99.30;102280.44;5052744;28;20041;-89
2021/12/17 07:55:18;;;;;;;48.33;20.00;;;;;;;2.30;98.75;102290.78;5056128;28;20037;-87
2021/12/17 07:57:44;;;;;;;51.00;20.05;;;;;;;2.32;98.67;102297.69;5046514;28;20348;-89
2021/12/17 08:00:15;;;;;;;44.08;19.15;;;;;;;2.36;98.58;102289.06;5036870;28;20119;-90
2021/12/17 08:02:41;;;;;;;42.67;19.00;;;;;;;2.40;98.55;102290.78;5051288;28;20096;-88
2021/12/17 08:05:12;;;;;;;46.67;19.63;;;;;;;2.47;98.85;102286.47;5052583;28;20061;-90
2021/12/17 08:07:39;;;;;;;43.33;17.77;;;;;;;2.57;98.58;102276.97;5045789;28;20355;-90
2021/12/17 08:10:08;;;;;;;46.97;18.70;;;;;;;2.60;97.57;102285.59;5045241;28;20403;-88
2021/12/17 08:12:36;;;;;;;39.17;19.07;;;;;;;2.65;97.39;102289.03;5034821;28;20029;-88
2021/12/17 08:15:04;;;;;;;40.05;18.20;;;;;;;2.71;96.82;102284.69;5050938;28;20027;-89
2021/12/17 08:17:53;;;;;;;36.93;17.97;;;;;;;2.78;96.56;102291.56;5052239;28;20068;-91
2021/12/17 08:23:47;;;;;;;38.72;17.67;;;;;;;2.87;96.49;102322.66;5037994;28;20187;-90
2021/12/17 08:28:24;;;;;;;56.72;30.40;;;;;;;3.09;97.01;102321.75;5026988;28;20120;-90
2021/12/17 08:30:52;;;;;;;52.67;24.10;;;;;;;3.19;96.48;102312.22;5034718;28;20171;-90
2021/12/17 08:33:21;;;;;;;83.32;38.10;;;;;;;3.27;96.49;102315.63;5053177;28;20032;-91
2021/12/17 08:35:52;;;;;;;94.18;43.20;;;;;;;3.32;95.98;102323.38;5055448;28;20445;-89
2021/12/17 08:38:20;;;;;;;42.13;20.08;;;;;;;3.38;95.56;102320.78;5055578;28;20128;-89
2021/12/17 08:40:50;;;;;;;36.38;16.85;;;;;;;3.46;94.60;102318.16;5054020;28;20390;-89
2021/12/17 08:43:18;;;;;;;35.47;17.48;;;;;;;3.55;95.33;102313.75;5047201;28;20032;-91
2021/12/17 08:46:05;;;;;;;33.40;16.60;;;;;;;3.68;94.83;102303.34;5054079;28;20025;-88
2021/12/17 08:48:35;;;;;;;35.28;17.77;;;;;;;3.77;94.20;102303.25;5039616;28;20040;-91
2021/12/17 08:51:06;;;;;;;33.35;16.45;;;;;;;3.82;93.24;102309.28;5038012;28;20026;-91
2021/12/17 08:53:32;;;;;;;31.05;15.98;;;;;;;3.80;92.61;102304.09;5032264;28;20041;-89
2021/12/17 08:55:57;;;;;;;36.63;16.98;;;;;;;3.75;92.72;102305.88;5039151;28;20316;-87
2021/12/17 08:58:25;;;;;;;36.13;18.02;;;;;;;3.68;92.93;102300.75;5037778;28;20037;-90
2021/12/17 09:01:03;;;;;;;;;;;;;;;;;;;;;
2021/12/17 09:03:33;;;;;;;37.17;18.23;;;;;;;3.62;93.16;102289.50;5028587;28;20100;-89
2021/12/17 09:06:02;;;;;;;40.97;20.55;;;;;;;3.59;92.62;102288.66;5043825;28;20043;-89
2021/12/17 09:08:32;;;;;;;45.25;19.52;;;;;;;3.60;92.96;102295.59;5039384;28;20378;-90
2021/12/17 09:11:06;;;;;;;40.35;19.13;;;;;;;3.60;92.53;102286.09;5055525;28;20041;-90
2021/12/17 09:13:34;;;;;;;39.42;18.58;;;;;;;3.61;92.75;102282.59;5053643;28;20100;-91
2021/12/17 09:16:06;;;;;;;31.23;16.40;;;;;;;3.57;92.26;102291.28;5055332;28;20057;-91
2021/12/17 09:18:39;;;;;;;35.53;16.85;;;;;;;3.56;92.98;102309.44;5052019;28;20032;-89
2021/12/17 09:21:12;;;;;;;35.08;15.98;;;;;;;3.58;93.55;102308.56;5058438;28;20025;-89
2021/12/17 09:23:40;;;;;;;34.53;15.65;;;;;;;3.66;93.29;102302.47;5055888;28;20037;-86
2021/12/17 09:26:09;;;;;;;28.08;14.45;;;;;;;3.69;93.27;102311.09;5056058;28;20735;-91
2021/12/17 09:28:34;;;;;;;27.25;14.55;;;;;;;3.70;92.62;102309.38;5054415;28;20068;-91
2021/12/17 09:31:00;;;;;;;27.15;13.63;;;;;;;3.70;92.53;102311.94;5053098;28;20530;-90
2021/12/17 09:33:28;;;;;;;26.35;13.57;;;;;;;3.69;92.56;102307.66;5034919;28;20420;-92
2021/12/17 09:35:57;;;;;;;33.70;15.50;;;;;;;3.70;92.47;102306.75;5035672;28;20046;-90
2021/12/17 09:38:26;;;;;;;28.13;13.48;;;;;;;3.72;92.43;102307.63;5053689;28;20091;-89
2021/12/17 09:40:51;;;;;;;27.13;13.98;;;;;;;3.72;92.23;102300.72;5057287;28;20100;-90
2021/12/17 09:43:26;;;;;;;28.15;14.32;;;;;;;3.79;92.81;102298.94;5047682;28;20143;-91
2021/12/17 09:46:01;;;;;;;34.42;15.02;;;;;;;3.86;92.27;102309.28;5045120;28;20043;-88
2021/12/17 09:48:32;;;;;;;35.58;16.20;;;;;;;3.92;92.54;102299.72;5060204;28;20051;-88
2021/12/17 09:51:04;;;;;;;26.85;13.60;;;;;;;3.98;92.51;102308.31;5037499;28;20114;-88
2021/12/17 09:53:31;;;;;;;32.00;14.82;;;;;;;4.03;92.16;102308.28;5053426;28;20049;-89
2021/12/17 09:55:56;;;;;;;32.92;14.75;;;;;;;4.09;92.47;102303.06;5054170;28;20033;-89
2021/12/17 09:58:32;;;;;;;32.40;14.73;;;;;;;4.19;92.08;102301.22;5053240;28;20037;-89
2021/12/17 10:01:32;;;;;;;29.30;13.57;;;;;;;4.34;90.79;102301.13;5057046;28;20040;-91
2021/12/17 10:04:17;;;;;;;35.03;15.80;;;;;;;4.47;89.75;102287.16;5052135;28;20029;-91
2021/12/17 10:06:45;;;;;;;35.60;16.88;;;;;;;4.56;89.82;102289.66;5054768;28;20390;-87
2021/12/17 10:09:15;;;;;;;34.85;16.58;;;;;;;4.68;89.11;102290.44;5061238;28;20040;-88
2021/12/17 10:12:03;;;;;;;28.90;16.05;;;;;;;4.82;88.35;102299.81;5039364;28;20037;-90
2021/12/17 10:14:29;;;;;;;30.83;16.60;;;;;;;4.92;88.19;102289.28;5057260;28;20048;-91
2021/12/17 10:17:15;;;;;;;37.58;15.43;;;;;;;4.98;87.75;102278.84;5049773;28;20033;-88
2021/12/17 10:20:03;;;;;;;29.98;14.40;;;;;;;5.03;87.90;102277.03;5054036;28;20039;-90
2021/12/17 10:22:33;;;;;;;35.15;14.80;;;;;;;5.04;87.61;102277.03;5054854;28;20293;-90
2021/12/17 10:25:10;;;;;;;41.15;17.67;;;;;;;5.17;87.58;102274.28;5052192;28;20033;-90
2021/12/17 10:27:40;;;;;;;42.88;18.20;;;;;;;5.27;86.95;102283.69;5061707;28;20075;-91
2021/12/17 10:30:23;;;;;;;33.95;16.23;;;;;;;5.34;87.24;102274.94;5042878;28;20068;-90
2021/12/17 10:33:04;;;;;;;35.53;15.80;;;;;;;5.48;86.32;102283.38;5056252;28;20494;-91
2021/12/17 10:35:45;;;;;;;27.08;15.05;;;;;;;5.64;86.14;102283.19;5059752;28;20043;-90
2021/12/17 10:38:25;;;;;;;;;;;;;;;;;;;;;
2021/12/17 10:41:10;;;;;;;32.35;15.70;;;;;;;5.59;86.88;102284.09;5057927;28;20501;-91
2021/12/17 10:43:41;;;;;;;28.55;15.27;;;;;;;5.50;86.84;102284.22;5039903;28;20167;-90
2021/12/17 10:46:32;;;;;;;31.40;16.70;;;;;;;5.58;86.93;102286.72;5049560;28;20040;-91
2021/12/17 10:49:20;;;;;;;30.85;15.63;;;;;;;5.62;87.13;102283.19;5050287;28;20037;-90
2021/12/17 10:51:56;;;;;;;30.67;15.95;;;;;;;5.71;86.79;102297.81;5042165;23;20045;-72
2021/12/17 10:54:22;;;;;;;33.75;16.15;;;;;;;5.63;87.01;102294.47;5044256;28;20021;-71
2021/12/17 10:56:53;;;;;;;32.30;16.80;;;;;;;5.57;87.33;102290.22;5040423;28;20164;-71
2021/12/17 10:59:22;;;;;;;35.60;17.60;;;;;;;5.51;87.66;102290.28;5017542;28;20112;-71
2021/12/17 11:01:54;;;;;;;34.72;16.83;;;;;;;5.53;88.14;102280.75;5024256;28;20041;-71
2021/12/17 11:04:27;;;;;;;33.97;17.83;;;;;;;5.60;88.00;102290.19;5030746;28;20040;-71
2021/12/17 11:07:03;;;;;;;32.58;17.02;;;;;;;5.58;88.02;102291.94;5027798;28;20041;-71
2021/12/17 11:09:38;;;;;;;39.10;16.77;;;;;;;5.57;88.02;102290.22;5026266;28;20032;-71
2021/12/17 11:12:22;;;;;;;35.95;17.85;;;;;;;5.55;88.37;102282.41;5026726;28;20017;-71
2021/12/17 11:14:48;;;;;;;31.05;15.73;;;;;;;5.56;88.22;102265.94;5025826;28;20034;-70
2021/12/17 11:17:16;;;;;;;36.03;18.33;;;;;;;5.57;89.02;102270.25;5027805;28;20029;-71
2021/12/17 11:19:42;;;;;;;36.92;17.83;;;;;;;5.61;88.71;102278.88;5026452;28;20531;-71
2021/12/17 11:22:07;;;;;;;34.17;17.35;;;;;;;5.69;88.79;102281.38;5015737;28;20052;-72
2021/12/17 11:24:34;;;;;;;32.83;17.45;;;;;;;5.65;88.62;102280.56;5027002;28;20033;-70
2021/12/17 11:27:04;;;;;;;34.53;17.73;;;;;;;5.77;89.14;102282.13;5027656;28;20017;-71
2021/12/17 11:29:30;;;;;;;39.53;19.35;;;;;;;5.85;88.34;102276.78;5026126;28;20119;-72
2021/12/17 11:31:56;;;;;;;32.60;17.50;;;;;;;5.94;88.22;102263.69;5027387;28;20477;-72
2021/12/17 11:34:22;;;;;;;44.83;18.73;;;;;;;5.98;87.86;102265.34;5026477;28;20029;-72
2021/12/17 11:36:47;;;;;;;38.30;19.08;;;;;;;6.05;87.51;102277.38;5028311;28;20099;-71
2021/12/17 11:39:26;;;;;;;34.08;17.83;;;;;;;6.13;86.51;102275.50;5024279;28;20042;-72
2021/12/17 11:42:01;;;;;;;;;;;;;;;6.13;86.41;102269.44;5027776;28;20041;-71
2021/12/17 11:44:40;;;;;;;35.90;18.08;;;;;;;6.20;86.21;102266.72;5025950;28;19913;-72
2021/12/17 11:47:10;;;;;;;32.80;17.55;;;;;;;6.20;86.27;102265.84;5019787;28;20438;-72
2021/12/17 11:49:44;;;;;;;38.70;18.90;;;;;;;6.17;85.24;102263.31;5019722;28;20041;-71
2021/12/17 11:52:10;;;;;;;33.58;17.55;;;;;;;6.25;85.06;102284.88;5019852;28;20053;-70
2021/12/17 11:54:35;;;;;;;35.47;18.17;;;;;;;6.30;85.47;102277.81;5029099;28;20029;-72
2021/12/17 11:57:14;;;;;;;40.03;18.23;;;;;;;6.23;84.95;102274.50;5026077;28;20002;-70
2021/12/17 11:59:45;;;;;;;36.92;19.77;;;;;;;6.23;85.71;102271.00;5028572;28;20036;-73
2021/12/17 12:02:22;;;;;;;37.42;19.25;;;;;;;6.33;85.86;102264.75;5027041;28;20301;-71
2021/12/17 12:05:03;;;;;;;35.58;19.67;;;;;;;6.41;85.81;102262.00;5027174;28;20060;-72
2021/12/17 12:07:28;;;;;;;37.90;18.40;;;;;;;6.35;86.38;102264.75;5022880;28;20427;-72
2021/12/17 12:10:13;;;;;;;38.40;18.65;;;;;;;6.31;86.81;102263.94;5029982;28;20041;-71
2021/12/17 12:12:41;;;;;;;41.90;19.63;;;;;;;6.29;87.15;102260.47;5030103;28;20017;-71
2021/12/17 12:15:27;;;;;;;44.90;19.92;;;;;;;6.25;87.35;102264.88;5030221;28;20024;-69
2021/12/17 12:18:06;;;;;;;40.67;19.10;;;;;;;6.32;87.15;102277.81;5029469;28;20121;-72
2021/12/17 12:20:50;;;;;;;39.00;18.83;;;;;;;6.20;87.33;102282.34;5026755;28;20056;-72
2021/12/17 12:23:28;;;;;;;35.63;16.70;;;;;;;6.27;87.53;102275.28;5030925;28;20033;-71
2021/12/17 12:26:08;;;;;;;26.73;14.68;;;;;;;6.25;86.86;102277.91;5042353;28;20057;-72
2021/12/17 12:28:45;;;;;;;27.90;13.80;;;;;;;6.21;87.57;102270.19;5036019;28;20127;-70
2021/12/17 12:31:19;;;;;;;31.73;13.55;;;;;;;6.20;87.78;102278.88;5026087;28;20040;-72
2021/12/17 12:34:00;;;;;;;24.30;12.00;;;;;;;6.23;87.41;102250.16;5028095;28;20411;-72
2021/12/17 12:36:51;;;;;;;30.08;12.63;;;;;;;6.25;87.38;102248.38;5028329;28;20047;-71
2021/12/17 12:39:23;;;;;;;29.10;11.25;;;;;;;6.24;87.59;102249.28;5025929;28;20042;-72
2021/12/17 12:42:07;;;;;;;21.80;10.13;;;;;;;6.19;87.30;102244.16;5026408;28;20068;-72
2021/12/17 12:44:41;;;;;;;25.85;11.57;;;;;;;6.24;87.70;102249.28;5028939;28;20029;-71
2021/12/17 12:47:09;;;;;;;24.45;11.30;;;;;;;6.25;87.54;102251.84;5023531;28;20488;-72
2021/12/17 12:49:54;;;;;;;25.13;12.43;;;;;;;6.30;87.64;102267.41;5028709;28;20037;-72
2021/12/17 12:52:31;;;;;;;24.30;11.60;;;;;;;6.29;87.46;102268.28;5020978;28;20041;-73
2021/12/17 12:54:58;;;;;;;24.13;11.88;;;;;;;6.36;87.33;102271.66;5026952;28;20037;-74
2021/12/17 12:57:28;;;;;;;26.85;11.40;;;;;;;6.34;87.45;102265.59;5031015;28;20025;-73
2021/12/17 12:59:55;;;;;;;25.77;12.65;;;;;;;6.36;87.51;102264.69;5031699;28;20052;-72
2021/12/17 13:02:25;;;;;;;20.42;10.85;;;;;;;6.33;86.45;102267.34;5027195;28;20033;-73
2021/12/17 13:04:53;;;;;;;21.90;10.70;;;;;;;6.34;87.36;102266.50;5031938;28;20033;-74
2021/12/17 13:07:37;;;;;;;21.50;11.73;;;;;;;6.33;86.98;102259.53;5026293;28;20079;-72
2021/12/17 13:10:23;;;;;;;24.67;10.80;;;;;;;6.36;87.37;102262.09;5018420;28;20034;-73
2021/12/17 13:13:19;;;;;;;25.08;11.07;;;;;;;6.35;87.26;102267.34;5029652;28;20052;-72
2021/12/17 13:24:15;;;;;;;21.67;10.80;;;;;;;6.33;86.98;102256.94;5029427;28;20120;-73
2021/12/17 13:26:44;;;;;;;23.48;11.48;;;;;;;6.35;87.38;102249.97;5026381;28;20038;-72
2021/12/17 13:29:14;;;;;;;24.50;11.00;;;;;;;6.39;87.71;102245.56;5024610;28;20091;-73
2021/12/17 13:31:44;;;;;;;25.60;10.80;;;;;;;6.39;87.42;102238.59;5026689;28;20108;-73
2021/12/17 13:34:20;;;;;;;25.35;11.30;;;;;;;6.42;87.56;102241.16;5029563;28;20040;-73
2021/12/17 13:37:24;;;;;;;25.90;11.02;;;;;;;6.40;86.83;102235.09;5030264;28;20131;-72
2021/12/17 13:40:01;;;;;;;35.97;10.35;;;;;;;6.43;87.44;102242.84;5025402;28;20095;-73
2021/12/17 13:42:30;;;;;;;23.60;10.43;;;;;;;6.44;87.10;102246.31;5019014;28;20495;-73
2021/12/17 13:44:59;;;;;;;22.75;10.30;;;;;;;6.41;87.33;102249.84;5027603;28;20064;-72
2021/12/17 13:47:26;;;;;;;;;;;;;;;6.35;87.59;102252.56;5026552;28;20069;-73
2021/12/17 13:50:12;;;;;;;23.50;11.48;;;;;;;6.38;88.07;102254.22;5023017;28;19940;-72
2021/12/17 13:52:44;;;;;;;26.00;11.63;;;;;;;6.38;88.28;102254.22;5025907;28;20036;-73
2021/12/17 13:55:13;;;;;;;24.30;11.43;;;;;;;6.38;88.06;102257.72;5029803;28;20121;-70
2021/12/17 13:57:41;;;;;;;23.42;12.35;;;;;;;6.40;88.35;102261.16;5025362;28;20021;-72
2021/12/17 14:00:09;;;;;;;23.77;12.57;;;;;;;6.40;88.19;102257.69;5028069;28;20643;-70
2021/12/17 14:02:36;;;;;;;25.05;11.93;;;;;;;6.38;88.51;102255.13;5043068;28;20848;-74
2021/12/17 14:05:08;;;;;;;21.85;11.20;;;;;;;6.34;88.26;102256.06;5029552;28;20610;-73
2021/12/17 14:07:37;;;;;;;28.00;12.32;;;;;;;6.30;89.22;102250.06;5027220;28;20525;-72
2021/12/17 14:10:09;;;;;;;24.60;12.18;;;;;;;6.34;88.90;102253.47;5021580;28;20029;-73
2021/12/17 14:12:39;;;;;;;24.13;11.13;;;;;;;6.36;88.75;102256.03;5028406;28;20507;-71
2021/12/17 14:15:15;;;;;;;20.27;9.65;;;;;;;6.33;88.51;102249.13;5029372;28;20021;-70
2021/12/17 14:17:43;;;;;;;20.10;10.43;;;;;;;6.30;88.56;102250.06;5027268;28;20375;-72
2021/12/17 14:20:24;;;;;;;23.15;10.60;;;;;;;6.34;88.56;102252.56;5022584;28;20030;-73
2021/12/17 14:22:53;;;;;;;21.65;11.02;;;;;;;6.35;88.94;102252.56;5024832;28;20141;-74
2021/12/17 14:25:29;;;;;;;25.23;10.95;;;;;;;6.34;88.60;102253.47;5028273;28;20021;-73
2021/12/17 14:28:00;;;;;;;25.85;11.23;;;;;;;6.36;88.99;102249.06;5025312;28;20037;-72
2021/12/17 14:30:33;;;;;;;20.73;10.23;;;;;;;6.38;88.58;102244.69;5023490;28;20116;-72
2021/12/17 14:33:05;;;;;;;21.70;9.90;;;;;;;6.41;88.69;102248.97;5025425;28;20487;-72
2021/12/17 14:35:41;;;;;;;24.23;8.63;;;;;;;6.37;88.74;102248.16;5026903;28;20030;-72
2021/12/17 14:38:06;;;;;;;20.38;9.68;;;;;;;6.40;88.77;102245.50;5031413;28;20415;-71
2021/12/17 14:40:42;;;;;;;21.33;9.45;;;;;;;6.45;88.13;102245.41;5024574;28;20048;-72
2021/12/17 14:43:22;;;;;;;27.60;9.80;;;;;;;6.41;88.45;102239.41;5021201;28;20056;-70
2021/12/17 14:46:00;;;;;;;19.40;9.10;;;;;;;6.46;88.44;102242.81;5021526;28;20053;-73